Conti Daphne — A8OZ6 — position and weather

sailwx.info

Track history (hours):
 
Tides and Currents Weather Stations Pressure Air Temp Water Temp Dewpoint Dewpoint Depression Visibility Wind Speed Wind Dir Waves Ship Positions

Conti Daphne

Last reported at 2014-Apr-18 21:34 UTC. Time now 2014-Oct-31 20:54 UTC.
Position N 18°37' W 066°15'.
Warning: this ship's position is months out of date.

Length 204 m; draft 9.3 m.

Type: Ship (hazmat cat A). MMSI: 636091519.

Date/timePositionNaut miles runAvg speedWind from/ knotsBaromVisibWave heightAir tempDewpointWater temp
2014-Apr-18 21:34N 18°37' W 066°15'17 8.7
2014-Apr-18 19:33N 18°39' W 066°33'9 9.4
2014-Apr-18 18:33N 18°40' W 066°43'10 9.6
2014-Apr-18 17:32N 18°42' W 066°53'9 9.7
2014-Apr-18 16:33N 18°43' W 067°03'13 9.4
2014-Apr-18 15:09N 18°38' W 067°16'610.2
2014-Apr-18 14:34N 18°35' W 067°22'9 9.1
2014-Apr-18 13:34N 18°31' W 067°30'9 8.5
2014-Apr-18 12:33N 18°27' W 067°38'9 8.6
2014-Apr-18 11:32N 18°22' W 067°46'9 8.8
2014-Apr-18 10:33N 18°18' W 067°54'  
Track history (hours):
 
Tides and Currents Weather Stations Pressure Air Temp Water Temp Dewpoint Dewpoint Depression Visibility Wind Speed Wind Dir Waves Ship Positions

Conti Daphne

Last reported at 2014-Apr-18 21:34 UTC. Time now 2014-Oct-31 20:54 UTC.
Position N 18°37' W 066°15'.
Warning: this ship's position is months out of date.

Length 204 m; draft 9.3 m.

Type: Ship (hazmat cat A). MMSI: 636091519.

Date/timePositionNaut miles runAvg speedWind from/ knotsBaromVisibWave heightAir tempDewpointWater temp
2014-Apr-18 21:34N 18°37' W 066°15'17 8.7
2014-Apr-18 19:33N 18°39' W 066°33'9 9.4
2014-Apr-18 18:33N 18°40' W 066°43'10 9.6
2014-Apr-18 17:32N 18°42' W 066°53'9 9.7
2014-Apr-18 16:33N 18°43' W 067°03'13 9.4
2014-Apr-18 15:09N 18°38' W 067°16'610.2
2014-Apr-18 14:34N 18°35' W 067°22'9 9.1
2014-Apr-18 13:34N 18°31' W 067°30'9 8.5
2014-Apr-18 12:33N 18°27' W 067°38'9 8.6
2014-Apr-18 11:32N 18°22' W 067°46'9 8.8
2014-Apr-18 10:33N 18°18' W 067°54'  

Dump ship's entire track history